createdAt,value
2019-06-10T00:01:21.316Z,4.60
2019-06-10T00:03:51.713Z,4.83
2019-06-10T00:06:21.102Z,5.30
2019-06-10T00:08:50.701Z,6.00
2019-06-10T00:11:21.323Z,5.10
2019-06-10T00:13:50.796Z,5.23
2019-06-10T00:16:20.832Z,3.93
2019-06-10T00:18:51.059Z,6.27
2019-06-10T00:21:21.735Z,5.00
2019-06-10T00:23:51.766Z,4.10
2019-06-10T00:26:21.601Z,3.73
2019-06-10T00:28:51.444Z,4.63
2019-06-10T00:31:20.846Z,5.47
2019-06-10T00:33:51.991Z,5.00
2019-06-10T00:36:21.576Z,6.03
2019-06-10T00:38:51.832Z,7.80
2019-06-10T00:41:21.879Z,7.17
2019-06-10T00:43:51.788Z,5.00
2019-06-10T00:46:21.296Z,5.63
2019-06-10T00:48:51.011Z,4.20
2019-06-10T00:51:20.994Z,8.73
2019-06-10T00:53:51.396Z,4.40
2019-06-10T00:56:21.700Z,4.10
2019-06-10T00:58:51.369Z,5.87
2019-06-10T01:01:21.932Z,7.77
2019-06-10T01:03:51.221Z,7.00
2019-06-10T01:06:21.309Z,8.07
2019-06-10T01:08:51.206Z,7.10
2019-06-10T01:11:26.677Z,4.30
2019-06-10T01:13:51.462Z,6.80
2019-06-10T01:16:21.703Z,4.13
2019-06-10T01:18:53.435Z,4.77
2019-06-10T01:21:22.061Z,4.77
2019-06-10T01:23:51.330Z,8.00
2019-06-10T01:26:21.594Z,4.20
2019-06-10T01:28:51.691Z,4.07
2019-06-10T01:31:24.226Z,4.30
2019-06-10T01:33:53.031Z,4.13
2019-06-10T01:36:22.246Z,6.33
2019-06-10T01:38:51.433Z,4.10
2019-06-10T01:41:21.446Z,4.23
2019-06-10T01:43:51.288Z,5.23
2019-06-10T01:46:21.108Z,6.30
2019-06-10T01:48:52.067Z,5.63
2019-06-10T01:51:21.638Z,4.47
2019-06-10T01:53:51.436Z,5.37
2019-06-10T01:56:21.505Z,3.30
2019-06-10T01:58:51.416Z,5.53
2019-06-10T02:01:30.703Z,5.20
2019-06-10T02:04:00.883Z,4.10
2019-06-10T02:06:31.627Z,4.67
2019-06-10T02:09:07.278Z,5.33
2019-06-10T02:11:37.420Z,7.27
2019-06-10T02:14:07.081Z,7.50
2019-06-10T02:16:36.420Z,7.57
2019-06-10T02:19:05.800Z,6.17
2019-06-10T02:21:34.923Z,6.60
2019-06-10T02:24:04.165Z,7.00
2019-06-10T02:26:33.278Z,6.80
2019-06-10T02:29:02.471Z,7.23
2019-06-10T02:31:37.255Z,5.60
2019-06-10T02:34:02.832Z,5.30
2019-06-10T02:36:36.591Z,6.23
2019-06-10T02:39:04.640Z,7.23
2019-06-10T02:41:36.333Z,7.13
2019-06-10T02:44:04.958Z,5.97
2019-06-10T02:46:36.167Z,6.00
2019-06-10T02:49:20.538Z,7.33
2019-06-10T02:51:36.165Z,7.63
2019-06-10T02:54:05.347Z,8.70
2019-06-10T02:56:36.496Z,10.60
2019-06-10T02:59:05.439Z,12.67
2019-06-10T03:01:38.122Z,10.53
2019-06-10T03:04:05.494Z,11.67
2019-06-10T03:06:39.302Z,10.20
2019-06-10T03:09:06.308Z,10.10
2019-06-10T03:11:37.063Z,13.00
2019-06-10T03:14:06.361Z,10.27
2019-06-10T03:16:42.302Z,13.63
2019-06-10T03:19:13.311Z,11.03
2019-06-10T03:21:42.923Z,11.77
2019-06-10T03:24:13.213Z,11.13
2019-06-10T03:26:42.839Z,14.40
2019-06-10T03:29:12.915Z,10.77
2019-06-10T03:31:47.645Z,12.43
2019-06-10T03:34:14.873Z,9.03
2019-06-10T03:36:43.958Z,9.23
2019-06-10T03:39:13.406Z,9.70
2019-06-10T03:41:42.577Z,10.47
2019-06-10T03:44:13.193Z,7.83
2019-06-10T03:46:43.124Z,9.40
2019-06-10T03:49:12.767Z,11.43
2019-06-10T03:51:42.858Z,9.30
2019-06-10T03:54:13.082Z,8.43
2019-06-10T03:56:43.096Z,10.97
2019-06-10T03:59:12.474Z,8.67
2019-06-10T04:01:42.598Z,9.10
2019-06-10T04:04:13.015Z,8.73
2019-06-10T04:06:44.205Z,8.63
2019-06-10T04:09:13.311Z,8.43
2019-06-10T04:11:43.290Z,9.30
2019-06-10T04:14:13.097Z,10.23
2019-06-10T04:16:43.316Z,11.77
2019-06-10T04:19:13.124Z,13.50
2019-06-10T04:21:43.311Z,10.57
2019-06-10T04:24:12.941Z,9.17
2019-06-10T04:26:43.452Z,10.23
2019-06-10T04:29:13.048Z,8.83
2019-06-10T04:31:42.586Z,10.77
2019-06-10T04:34:12.580Z,12.00
2019-06-10T04:36:42.374Z,9.03
2019-06-10T04:39:12.494Z,11.57
2019-06-10T04:41:42.669Z,10.47
2019-06-10T04:44:13.148Z,10.13
2019-06-10T04:46:42.881Z,11.70
2019-06-10T04:49:13.108Z,9.73
2019-06-10T04:51:43.429Z,9.47
2019-06-10T04:54:13.504Z,9.37
2019-06-10T04:56:43.066Z,8.40
2019-06-10T04:59:12.678Z,9.67
2019-06-10T05:01:42.615Z,9.63
2019-06-10T05:04:12.559Z,6.97
2019-06-10T05:06:42.321Z,8.90
2019-06-10T05:09:12.427Z,8.77
2019-06-10T05:11:43.028Z,7.43
2019-06-10T05:14:13.210Z,8.93
2019-06-10T05:16:43.410Z,9.63
2019-06-10T05:19:12.979Z,13.03
2019-06-10T05:21:42.562Z,13.03
2019-06-10T05:24:12.484Z,12.77
2019-06-10T05:26:42.490Z,12.57
2019-06-10T05:29:12.221Z,8.87
2019-06-10T05:31:43.576Z,8.87
2019-06-10T05:34:13.150Z,8.70
2019-06-10T05:36:43.566Z,11.67
2019-06-10T05:39:13.033Z,9.83
2019-06-10T05:41:43.250Z,11.27
2019-06-10T05:44:13.491Z,13.37
2019-06-10T05:46:43.725Z,12.00
2019-06-10T05:49:13.347Z,13.63
2019-06-10T05:51:42.613Z,9.83
2019-06-10T05:54:12.864Z,9.53
2019-06-10T05:56:43.241Z,11.33
2019-06-10T05:59:12.866Z,14.13
2019-06-10T06:01:43.206Z,8.23
2019-06-10T06:04:12.879Z,12.97
2019-06-10T06:06:44.926Z,9.00
2019-06-10T06:09:13.151Z,8.30
2019-06-10T06:11:43.094Z,12.40
2019-06-10T06:14:13.328Z,11.93
2019-06-10T06:16:43.499Z,9.23
2019-06-10T06:19:12.834Z,7.43
2019-06-10T06:21:47.459Z,9.27
2019-06-10T06:24:14.161Z,9.47
2019-06-10T06:26:43.524Z,10.37
2019-06-10T06:29:13.088Z,9.77
2019-06-10T06:31:43.054Z,14.30
2019-06-10T06:34:13.869Z,11.87
2019-06-10T06:36:43.236Z,11.37
2019-06-10T06:39:12.990Z,8.80
2019-06-10T06:41:42.852Z,12.13
2019-06-10T06:44:13.035Z,10.03
2019-06-10T06:46:43.106Z,7.63
2019-06-10T06:49:12.891Z,11.87
2019-06-10T06:51:53.941Z,10.73
2019-06-10T06:54:13.149Z,9.30
2019-06-10T06:56:43.699Z,13.97
2019-06-10T06:59:13.433Z,7.47
2019-06-10T07:01:44.248Z,10.60
2019-06-10T07:04:13.783Z,10.37
2019-06-10T07:06:43.525Z,9.73
2019-06-10T07:09:13.483Z,11.60
2019-06-10T07:11:45.258Z,12.03
2019-06-10T07:14:14.750Z,8.97
2019-06-10T07:16:46.329Z,9.20
2019-06-10T07:19:14.784Z,10.87
2019-06-10T07:22:02.348Z,10.23
2019-06-10T07:24:14.803Z,9.53
2019-06-10T07:26:50.883Z,11.83
2019-06-10T07:29:14.850Z,9.67
2019-06-10T07:31:46.707Z,8.70
2019-06-10T07:34:14.881Z,9.80
2019-06-10T07:36:45.493Z,11.77
2019-06-10T07:39:14.778Z,7.33
2019-06-10T07:41:47.409Z,7.37
2019-06-10T07:44:14.990Z,6.62
2019-06-10T07:46:45.723Z,10.97
2019-06-10T07:49:14.925Z,7.12
2019-06-10T07:51:46.306Z,7.08
2019-06-10T07:54:15.310Z,4.03
2019-06-10T07:56:50.454Z,7.03
2019-06-10T07:59:15.466Z,8.40
2019-06-10T08:01:50.970Z,5.47
2019-06-10T08:04:15.490Z,8.00
2019-06-10T08:06:45.893Z,5.83
2019-06-10T08:09:15.028Z,7.97
2019-06-10T08:11:46.829Z,8.80
2019-06-10T08:14:15.092Z,6.85
2019-06-10T08:16:46.668Z,10.00
2019-06-10T08:19:30.034Z,9.85
2019-06-10T08:21:49.207Z,12.90
2019-06-10T08:24:17.833Z,7.92
2019-06-10T08:26:47.775Z,6.78
2019-06-10T08:29:16.971Z,5.65
2019-06-10T08:31:48.441Z,4.08
2019-06-10T08:34:17.032Z,9.53
2019-06-10T08:36:50.106Z,7.03
2019-06-10T08:39:17.041Z,9.85
2019-06-10T08:41:49.054Z,9.05
2019-06-10T08:44:17.143Z,7.17
2019-06-10T08:46:47.244Z,7.20
2019-06-10T08:49:17.297Z,5.85
2019-06-10T08:51:48.866Z,4.70
2019-06-10T08:54:17.320Z,5.65
2019-06-10T08:56:50.321Z,6.72
2019-06-10T08:59:17.355Z,4.15
2019-06-10T09:01:51.461Z,8.75
2019-06-10T09:04:17.705Z,6.50
2019-06-10T09:06:50.358Z,3.87
2019-06-10T09:09:17.692Z,3.65
2019-06-10T09:11:49.679Z,4.17
2019-06-10T09:14:17.988Z,6.17
2019-06-10T09:16:48.963Z,5.58
2019-06-10T09:19:18.003Z,5.45
2019-06-10T09:21:51.094Z,5.70
2019-06-10T09:24:18.006Z,6.22
2019-06-10T09:26:50.147Z,4.72
2019-06-10T09:29:18.078Z,3.60
2019-06-10T09:31:51.302Z,3.92
2019-06-10T09:34:18.179Z,6.30
2019-06-10T09:36:50.163Z,5.60
2019-06-10T09:39:18.174Z,4.62
2019-06-10T09:41:54.120Z,6.00
2019-06-10T09:44:18.177Z,12.03
2019-06-10T09:46:53.708Z,7.00
2019-06-10T09:49:22.875Z,5.72
2019-06-10T09:51:56.364Z,4.10
2019-06-10T09:54:23.335Z,5.97
2019-06-10T09:56:54.684Z,4.20
2019-06-10T09:59:23.618Z,3.17
2019-06-10T10:01:58.725Z,5.35
2019-06-10T10:04:23.800Z,6.17
2019-06-10T10:06:57.202Z,6.47
2019-06-10T10:09:24.468Z,4.03
2019-06-10T10:11:55.310Z,3.67
2019-06-10T10:14:24.570Z,6.30
2019-06-10T10:16:59.906Z,6.95
2019-06-10T10:19:24.791Z,6.95
2019-06-10T10:21:58.211Z,6.70
2019-06-10T10:24:24.921Z,5.17
2019-06-10T10:26:57.534Z,7.22
2019-06-10T10:29:25.143Z,5.63
2019-06-10T10:31:54.288Z,4.65
2019-06-10T10:34:23.761Z,5.25
2019-06-10T10:36:56.763Z,4.70
2019-06-10T10:39:24.629Z,4.03
2019-06-10T10:41:56.600Z,5.33
2019-06-10T10:44:24.776Z,3.87
2019-06-10T10:46:55.753Z,3.62
2019-06-10T10:49:25.027Z,4.60
2019-06-10T10:51:54.165Z,4.15
2019-06-10T10:54:32.982Z,4.45
2019-06-10T10:56:58.663Z,2.75
2019-06-10T10:59:25.157Z,3.25
2019-06-10T11:01:54.366Z,4.22
2019-06-10T11:04:23.551Z,3.37
2019-06-10T11:06:55.637Z,3.02
2019-06-10T11:09:26.276Z,2.45
2019-06-10T11:11:58.964Z,4.50
2019-06-10T11:14:29.396Z,2.90
2019-06-10T11:16:58.978Z,6.20
2019-06-10T11:19:28.290Z,2.77
2019-06-10T11:21:57.898Z,2.90
2019-06-10T11:24:36.648Z,3.80
2019-06-10T11:26:58.449Z,2.75
2019-06-10T11:29:27.679Z,3.25
2019-06-10T11:31:58.615Z,2.65
2019-06-10T11:34:27.751Z,4.28
2019-06-10T11:36:58.207Z,2.58
2019-06-10T11:39:27.511Z,2.42
2019-06-10T11:41:57.723Z,3.45
2019-06-10T11:44:26.991Z,6.53
2019-06-10T11:46:58.140Z,3.02
2019-06-10T11:49:27.044Z,3.98
2019-06-10T11:51:57.956Z,3.87
2019-06-10T11:54:27.088Z,2.87
2019-06-10T11:56:58.065Z,3.62
2019-06-10T11:59:27.137Z,3.02
2019-06-10T12:01:59.932Z,3.00
2019-06-10T12:04:27.229Z,3.42
2019-06-10T12:06:57.063Z,5.45
2019-06-10T12:09:26.317Z,4.45
2019-06-10T12:12:01.391Z,3.85
2019-06-10T12:14:27.211Z,2.80
2019-06-10T12:19:27.383Z,3.37
2019-06-10T12:22:01.390Z,3.65
2019-06-10T12:24:27.425Z,3.37
2019-06-10T12:26:59.560Z,3.92
2019-06-10T12:29:27.515Z,4.30
2019-06-10T12:32:00.147Z,4.90
2019-06-10T12:34:27.562Z,4.08
2019-06-10T12:37:03.555Z,4.05
2019-06-10T12:39:27.558Z,4.65
2019-06-10T12:41:58.378Z,3.60
2019-06-10T12:44:27.590Z,4.85
2019-06-10T12:47:00.886Z,3.00
2019-06-10T12:49:28.953Z,3.17
2019-06-10T12:51:59.172Z,3.92
2019-06-10T12:54:28.459Z,4.78
2019-06-10T12:56:58.065Z,2.98
2019-06-10T12:59:27.221Z,4.87
2019-06-10T13:01:58.065Z,3.83
2019-06-10T13:04:27.489Z,2.98
2019-06-10T13:07:00.200Z,3.08
2019-06-10T13:09:32.563Z,3.80
2019-06-10T13:12:02.111Z,3.20
2019-06-10T13:14:32.621Z,3.90
2019-06-10T13:17:03.020Z,3.33
2019-06-10T13:19:34.362Z,3.37
2019-06-10T13:22:05.723Z,6.53
2019-06-10T13:24:34.695Z,5.33
2019-06-10T13:27:06.374Z,4.05
2019-06-10T13:29:34.803Z,4.00
2019-06-10T13:32:06.086Z,4.15
2019-06-10T13:34:34.907Z,3.92
2019-06-10T13:37:06.782Z,2.98
2019-06-10T13:39:34.983Z,4.50
2019-06-10T13:42:07.713Z,5.05
2019-06-10T13:44:35.082Z,4.12
2019-06-10T13:47:07.012Z,6.55
2019-06-10T13:49:35.281Z,3.27
2019-06-10T13:52:09.127Z,2.87
2019-06-10T13:54:35.492Z,4.22
2019-06-10T13:57:06.891Z,3.10
2019-06-10T13:59:35.525Z,4.60
2019-06-10T14:02:08.124Z,3.67
2019-06-10T14:04:35.655Z,4.67
2019-06-10T14:07:08.658Z,3.75
2019-06-10T14:09:35.712Z,4.45
2019-06-10T14:12:05.920Z,6.25
2019-06-10T14:14:34.999Z,3.65
2019-06-10T14:17:05.625Z,3.15
2019-06-10T14:19:34.861Z,4.60
2019-06-10T14:22:06.428Z,3.80
2019-06-10T14:24:35.028Z,4.55
2019-06-10T14:27:06.811Z,4.47
2019-06-10T14:29:35.108Z,3.20
2019-06-10T14:32:05.710Z,3.30
2019-06-10T14:34:34.943Z,5.08
2019-06-10T14:37:04.102Z,3.90
2019-06-10T14:39:33.289Z,6.17
2019-06-10T14:42:04.900Z,3.52
2019-06-10T14:44:33.249Z,6.85
2019-06-10T14:47:03.014Z,4.03
2019-06-10T14:49:33.026Z,5.97
2019-06-10T14:52:02.791Z,4.25
2019-06-10T14:54:32.287Z,5.25
2019-06-10T14:57:02.691Z,3.87
2019-06-10T14:59:31.935Z,4.45
2019-06-10T15:02:02.800Z,4.87
2019-06-10T15:04:33.219Z,4.67
2019-06-10T15:07:03.566Z,6.28
2019-06-10T15:09:33.540Z,4.72
2019-06-10T15:12:02.992Z,4.45
2019-06-10T15:14:32.468Z,4.20
2019-06-10T15:17:02.751Z,7.20
2019-06-10T15:19:33.235Z,5.70
2019-06-10T15:22:03.023Z,6.67
2019-06-10T15:24:33.469Z,5.42
2019-06-10T15:27:13.112Z,5.42
2019-06-10T15:29:33.597Z,5.37
2019-06-10T15:32:14.056Z,5.37
2019-06-10T15:34:33.727Z,5.55
2019-06-10T15:37:03.005Z,4.30
2019-06-10T15:39:33.340Z,4.50
2019-06-10T15:42:03.142Z,5.87
2019-06-10T15:44:52.309Z,4.83
2019-06-10T15:47:03.354Z,3.75
2019-06-10T15:49:32.818Z,4.97
2019-06-10T15:52:03.305Z,4.40
2019-06-10T15:54:33.342Z,5.58
2019-06-10T15:57:03.274Z,5.78
2019-06-10T15:59:32.722Z,4.75
2019-06-10T16:02:02.542Z,5.55
2019-06-10T16:04:35.069Z,5.67
2019-06-10T16:07:03.094Z,4.92
2019-06-10T16:09:32.301Z,5.30
2019-06-10T16:12:02.922Z,6.37
2019-06-10T16:14:33.260Z,4.55
2019-06-10T16:17:03.145Z,5.80
2019-06-10T16:19:32.946Z,6.12
2019-06-10T16:22:03.185Z,4.80
2019-06-10T16:24:33.260Z,6.83
2019-06-10T16:27:03.406Z,5.10
2019-06-10T16:29:33.404Z,4.12
2019-06-10T16:32:02.824Z,9.38
2019-06-10T16:34:32.561Z,5.65
2019-06-10T16:37:02.350Z,9.50
2019-06-10T16:39:32.568Z,6.15
2019-06-10T16:42:02.977Z,4.80
2019-06-10T16:44:32.967Z,8.00
2019-06-10T16:47:03.192Z,6.97
2019-06-10T16:49:32.908Z,4.15
2019-06-10T16:52:02.898Z,4.97
2019-06-10T16:54:32.982Z,4.95
2019-06-10T16:57:03.856Z,4.83
2019-06-10T16:59:33.098Z,5.80
2019-06-10T17:02:02.423Z,7.03
2019-06-10T17:04:33.120Z,5.00
2019-06-10T17:07:02.577Z,8.08
2019-06-10T17:09:32.799Z,13.00
2019-06-10T17:12:02.422Z,5.17
2019-06-10T17:14:33.532Z,6.30
2019-06-10T17:17:03.588Z,8.63
2019-06-10T17:19:33.505Z,7.12
2019-06-10T17:22:02.720Z,9.55
2019-06-10T17:24:33.850Z,6.45
2019-06-10T17:27:02.888Z,7.35
2019-06-10T17:29:33.463Z,8.70
2019-06-10T17:32:02.986Z,8.50
2019-06-10T17:34:33.952Z,7.60
2019-06-10T17:37:03.260Z,4.92
2019-06-10T17:39:34.552Z,8.25
2019-06-10T17:42:03.361Z,6.65
2019-06-10T17:44:32.615Z,5.70
2019-06-10T17:47:02.338Z,9.15
2019-06-10T17:49:34.421Z,5.60
2019-06-10T17:52:02.721Z,5.85
2019-06-10T17:54:32.451Z,5.20
2019-06-10T17:57:02.500Z,7.62
2019-06-10T17:59:34.041Z,7.10
2019-06-10T18:02:03.094Z,6.92
2019-06-10T18:04:33.615Z,7.53
2019-06-10T18:07:02.911Z,5.10
2019-06-10T18:09:34.704Z,7.33
2019-06-10T18:12:02.935Z,5.95
2019-06-10T18:14:33.312Z,8.23
2019-06-10T18:17:03.153Z,11.30
2019-06-10T18:19:36.791Z,8.78
2019-06-10T18:22:03.220Z,6.97
2019-06-10T18:24:33.056Z,6.42
2019-06-10T18:27:02.401Z,6.20
2019-06-10T18:29:34.092Z,5.43
2019-06-10T18:32:03.460Z,8.43
2019-06-10T18:34:36.293Z,6.15
2019-06-10T18:37:03.854Z,6.28
2019-06-10T18:39:33.568Z,6.85
2019-06-10T18:42:03.425Z,6.80
2019-06-10T18:44:35.385Z,8.53
2019-06-10T18:47:03.601Z,8.15
2019-06-10T18:49:35.555Z,8.28
2019-06-10T18:52:03.845Z,10.08
2019-06-10T18:54:35.614Z,9.93
2019-06-10T18:57:04.022Z,8.33
2019-06-10T18:59:36.082Z,8.43
2019-06-10T19:02:06.367Z,7.35
2019-06-10T19:04:38.368Z,9.98
2019-06-10T19:07:07.648Z,13.20
2019-06-10T19:09:39.494Z,7.90
2019-06-10T19:12:07.921Z,9.98
2019-06-10T19:14:38.356Z,9.58
2019-06-10T19:17:07.636Z,7.65
2019-06-10T19:19:38.139Z,7.87
2019-06-10T19:22:09.361Z,9.20
2019-06-10T19:24:39.795Z,9.23
2019-06-10T19:27:09.245Z,9.47
2019-06-10T19:29:45.467Z,8.13
2019-06-10T19:32:09.443Z,12.30
2019-06-10T19:34:39.435Z,10.50
2019-06-10T19:37:08.699Z,8.67
2019-06-10T19:39:45.131Z,7.90
2019-06-10T19:42:09.443Z,9.35
2019-06-10T19:44:38.908Z,9.73
2019-06-10T19:47:08.337Z,10.77
2019-06-10T19:49:38.635Z,12.05
2019-06-10T19:52:07.832Z,9.30
2019-06-10T19:54:37.054Z,9.53
2019-06-10T19:57:06.418Z,10.13
2019-06-10T19:59:52.634Z,9.40
2019-06-10T20:02:08.659Z,8.77
2019-06-10T20:04:37.766Z,13.00
2019-06-10T20:07:06.954Z,8.55
2019-06-10T20:09:36.102Z,9.17
2019-06-10T20:12:05.436Z,12.73
2019-06-10T20:14:34.681Z,8.30
2019-06-10T20:17:04.049Z,8.90
2019-06-10T20:19:33.283Z,10.10
2019-06-10T20:22:02.494Z,10.20
2019-06-10T20:24:33.894Z,7.90
2019-06-10T20:27:03.172Z,10.27
2019-06-10T20:29:32.888Z,16.53
2019-06-10T20:32:02.108Z,12.80
2019-06-10T20:34:31.424Z,8.13
2019-06-10T20:37:02.455Z,9.77
2019-06-10T20:39:32.962Z,10.32
2019-06-10T20:42:02.876Z,9.70
2019-06-10T20:44:32.560Z,13.23
2019-06-10T20:47:01.797Z,8.63
2019-06-10T20:49:32.601Z,10.07
2019-06-10T20:52:10.914Z,9.20
2019-06-10T20:54:32.729Z,10.13
2019-06-10T20:57:04.081Z,8.30
2019-06-10T20:59:33.290Z,7.63
2019-06-10T21:02:03.183Z,6.70
2019-06-10T21:04:32.483Z,5.78
2019-06-10T21:07:02.859Z,6.50
2019-06-10T21:09:32.782Z,4.43
2019-06-10T21:12:02.204Z,6.60
2019-06-10T21:14:33.119Z,8.33
2019-06-10T21:17:03.015Z,7.07
2019-06-10T21:19:33.134Z,4.90
2019-06-10T21:22:02.841Z,3.70
2019-06-10T21:24:32.417Z,3.93
2019-06-10T21:27:01.547Z,4.10
2019-06-10T21:29:32.300Z,4.83
2019-06-10T21:32:03.541Z,6.00
2019-06-10T21:34:32.695Z,5.70
2019-06-10T21:37:03.278Z,7.27
2019-06-10T21:39:32.618Z,6.87
2019-06-10T21:42:02.436Z,11.20
2019-06-10T21:44:32.023Z,9.37
2019-06-10T21:47:02.462Z,7.80
2019-06-10T21:49:32.253Z,6.57
2019-06-10T21:52:02.916Z,8.00
2019-06-10T21:54:33.011Z,7.07
2019-06-10T21:57:02.755Z,7.90
2019-06-10T21:59:32.247Z,7.47
2019-06-10T22:02:02.283Z,9.13
2019-06-10T22:04:32.671Z,8.47
2019-06-10T22:07:03.202Z,11.67
2019-06-10T22:09:32.515Z,11.77
2019-06-10T22:12:02.865Z,11.90
2019-06-10T22:14:32.962Z,17.07
2019-06-10T22:17:03.045Z,12.03
2019-06-10T22:19:32.404Z,10.50
2019-06-10T22:22:02.768Z,9.83
2019-06-10T22:24:31.988Z,12.60
2019-06-10T22:27:02.727Z,10.27
2019-06-10T22:29:32.305Z,12.10
2019-06-10T22:32:02.624Z,9.30
2019-06-10T22:34:32.948Z,11.37
2019-06-10T22:37:03.196Z,11.40
2019-06-10T22:39:32.650Z,12.83
2019-06-10T22:42:03.019Z,10.47
2019-06-10T22:44:33.119Z,13.20
2019-06-10T22:47:02.920Z,10.53
2019-06-10T22:49:32.847Z,11.67
2019-06-10T22:52:02.118Z,13.23
2019-06-10T22:54:32.311Z,12.93
2019-06-10T22:57:02.866Z,11.23
2019-06-10T22:59:32.133Z,14.70
2019-06-10T23:02:03.062Z,13.77
2019-06-10T23:04:33.173Z,13.57
2019-06-10T23:07:03.180Z,16.67
2019-06-10T23:09:32.584Z,14.90
2019-06-10T23:12:02.930Z,16.57
2019-06-10T23:14:33.198Z,12.30
2019-06-10T23:17:03.175Z,12.77
2019-06-10T23:19:33.154Z,14.57
2019-06-10T23:22:03.006Z,16.93
2019-06-10T23:24:32.429Z,14.03
2019-06-10T23:27:03.369Z,17.40
2019-06-10T23:29:32.958Z,12.63
2019-06-10T23:32:06.827Z,13.37
2019-06-10T23:34:33.163Z,13.00
2019-06-10T23:37:02.377Z,10.57
2019-06-10T23:39:33.468Z,10.80
2019-06-10T23:42:04.280Z,11.73
2019-06-10T23:44:33.252Z,8.80
2019-06-10T23:47:03.838Z,9.87
2019-06-10T23:49:33.253Z,11.03
2019-06-10T23:52:04.887Z,12.87
2019-06-10T23:54:33.263Z,12.73
2019-06-10T23:57:05.444Z,10.83
2019-06-10T23:59:33.359Z,10.70
